Погода Безледына неделю

Варминско-Мазурское воеводство, Польша

16 - 22 июля
  • 16июля
    Сегодня
    +19°
    +32°
    Облачно с прояснениями
    ВремяПогодаТемператураВлажностьДавлениеВетер, м/сВероятность осадков
    02:00Ясно и безоблачно+18°C84 %756 мм2.0 м/с2 %
    05:00Практически безоблачно+17°C88 %756 мм2.0 м/с2 %
    08:00Ясно и безоблачно+24°C73 %756 мм2.1 м/с2 %
    11:00Облачно с прояснениями+29°C56 %755 мм3.5 м/с2 %
    14:00Облачно с прояснениями+31°C44 %754 мм4.3 м/с9 %
    17:00Облачно с прояснениями+30°C49 %753 мм3.0 м/с24 %
    20:00Облачно с прояснениями+26°C72 %753 мм4.5 м/с32 %
    23:00Небольшая облачность, ливень+22°C91 %753 мм4.7 м/с52 %
  • 17июля
    Среда
    +15°
    +27°
    Ясно и безоблачно
    ВремяПогодаТемператураВлажностьДавлениеВетер, м/сВероятность осадков
    02:00Облачно с прояснениями+20°C94 %754 мм2.9 м/с12 %
    05:00Ясно и безоблачно+19°C95 %755 мм2.7 м/с1 %
    08:00Ясно и безоблачно+22°C85 %757 мм3.8 м/с1 %
    11:00Ясно и безоблачно+25°C60 %757 мм4.0 м/с2 %
    14:00Ясно и безоблачно+26°C52 %758 мм5.0 м/с1 %
    17:00Небольшая облачность+26°C48 %758 мм4.5 м/с3 %
    20:00Ясно и безоблачно+23°C71 %758 мм3.0 м/с1 %
    23:00Практически безоблачно+17°C91 %759 мм1.6 м/с2 %
  • 18июля
    Четверг
    +13°
    +24°
    Практически безоблачно
    ВремяПогодаТемператураВлажностьДавлениеВетер, м/сВероятность осадков
    02:00Ясно и безоблачно+16°C95 %759 мм1.3 м/с1 %
    05:00Ясно и безоблачно+16°C94 %759 мм2.3 м/с2 %
    08:00Ясно и безоблачно+20°C76 %760 мм3.0 м/с2 %
    11:00Практически безоблачно+23°C60 %760 мм4.3 м/с39 %
    14:00Практически безоблачно+23°C55 %760 мм4.6 м/с44 %
    17:00Ясно и безоблачно+23°C58 %760 мм4.3 м/с12 %
    20:00Ясно и безоблачно+21°C74 %760 мм3.3 м/с3 %
    23:00Небольшая облачность+15°C88 %761 мм1.8 м/с2 %
  • 19июля
    Пятница
    +12°
    +23°
    Практически безоблачно
    ВремяПогодаТемператураВлажностьДавлениеВетер, м/сВероятность осадков
    02:00Практически безоблачно+14°C85 %761 мм2.7 м/с2 %
    05:00Облачно с прояснениями+14°C87 %760 мм2.7 м/с2 %
    08:00Облачно с прояснениями+18°C77 %760 мм3.1 м/с2 %
    11:00Облачно с прояснениями+21°C62 %760 мм4.4 м/с2 %
    14:00Практически безоблачно+22°C51 %760 мм4.9 м/с2 %
    17:00Ясно и безоблачно+23°C56 %759 мм4.5 м/с2 %
    20:00Ясно и безоблачно+20°C72 %759 мм2.8 м/с2 %
    23:00Ясно и безоблачно+14°C93 %759 мм1.4 м/с2 %
  • 20июля
    Суббота
    +12°
    +25°
    Облачно с прояснениями
    ВремяПогодаТемператураВлажностьДавлениеВетер, м/сВероятность осадков
    02:00Ясно и безоблачно+14°C94 %758 мм2.5 м/с2 %
    05:00Ясно и безоблачно+13°C94 %758 мм2.8 м/с2 %
    08:00Небольшая облачность+18°C80 %758 мм3.2 м/с2 %
    11:00Небольшая облачность+23°C58 %758 мм2.3 м/с11 %
    14:00Облачно с прояснениями+24°C52 %757 мм2.7 м/с19 %
    17:00Небольшая облачность+24°C58 %757 мм3.8 м/с13 %
    20:00Ясно и безоблачно+21°C73 %757 мм2.0 м/с2 %
    23:00Ясно и безоблачно+16°C94 %757 мм1.6 м/с2 %
Мы используем cookies
Соглашаюсь